Time;durP1;ratioP1;P1;durP2;ratioP2;P2;SDS_P1;SDS_P2;PMS_P1;PMS_P2;Temp;Humidity;BMP_temperature;BMP_pressure;BME280_temperature;BME280_humidity;BME280_pressure;Samples;Min_cycle;Max_cycle;Signal;HPM_P1;HPM_P2
2022/05/11 04:14:21;;;;;;;17.27;10.98;;;;;;;10.44;100.00;100684.09;5562861;32;167355;-87
2022/05/11 04:17:25;;;;;;;14.32;9.48;;;;;;;10.48;100.00;100685.69;5547387;32;34663;-87
2022/05/11 04:20:27;;;;;;;14.10;9.77;;;;;;;10.62;100.00;100689.50;5548826;32;32172;-85
2022/05/11 04:23:30;;;;;;;13.10;8.98;;;;;;;10.76;100.00;100689.75;5545783;32;33814;-86
2022/05/11 04:26:33;;;;;;;12.30;8.77;;;;;;;10.91;100.00;100693.47;5545077;32;32410;-85
2022/05/11 04:29:37;;;;;;;12.93;9.80;;;;;;;11.09;100.00;100698.88;5550790;32;32292;-85
2022/05/11 04:32:40;;;;;;;13.18;9.38;;;;;;;11.20;100.00;100693.06;5557793;32;35164;-86
2022/05/11 04:35:43;;;;;;;12.70;9.00;;;;;;;11.40;100.00;100696.53;5558872;32;33981;-86
2022/05/11 04:38:46;;;;;;;12.45;8.93;;;;;;;11.58;100.00;100694.81;5557012;32;33764;-86
2022/05/11 04:41:48;;;;;;;18.67;9.48;;;;;;;11.72;100.00;100697.63;5552028;32;34003;-86
2022/05/11 04:44:54;;;;;;;14.05;9.00;;;;;;;11.85;100.00;100700.56;5546762;32;32413;-86
2022/05/11 04:47:57;;;;;;;13.98;9.30;;;;;;;11.97;100.00;100698.22;5546159;32;32486;-86
2022/05/11 04:51:03;;;;;;;13.38;8.98;;;;;;;12.10;100.00;100696.69;5555145;32;32853;-86
2022/05/11 04:54:09;;;;;;;14.43;8.80;;;;;;;12.26;100.00;100704.75;5555510;32;34086;-86
2022/05/11 04:57:12;;;;;;;15.35;8.90;;;;;;;12.57;97.41;100704.91;5547124;32;32530;-86
2022/05/11 05:00:15;;;;;;;14.00;8.95;;;;;;;12.79;95.64;100693.97;5561211;32;34276;-85
2022/05/11 05:03:17;;;;;;;17.58;9.95;;;;;;;12.98;94.74;100700.12;5546621;32;33068;-85
2022/05/11 05:06:20;;;;;;;14.18;9.50;;;;;;;13.24;92.79;100700.47;5545629;32;33561;-86
2022/05/11 05:09:24;;;;;;;11.10;8.70;;;;;;;13.46;91.76;100698.37;5545471;32;32098;-86
2022/05/11 05:12:27;;;;;;;10.25;8.52;;;;;;;13.70;90.24;100707.69;5555872;32;33366;-86
2022/05/11 05:15:34;;;;;;;11.12;9.00;;;;;;;13.96;89.17;100713.31;5556685;32;33963;-86
2022/05/11 05:18:37;;;;;;;15.57;8.55;;;;;;;14.33;85.95;100710.28;5559655;32;33769;-86
2022/05/11 05:21:40;;;;;;;10.52;9.05;;;;;;;14.67;83.99;100710.88;5543732;32;33151;-86
2022/05/11 05:24:43;;;;;;;11.70;8.27;;;;;;;15.33;81.20;100716.59;5534811;32;32598;-85
2022/05/11 05:27:49;;;;;;;14.38;7.75;;;;;;;16.30;76.90;100708.47;5541973;32;32501;-85
2022/05/11 05:31:08;;;;;;;11.85;8.57;;;;;;;18.04;70.36;100705.91;5531149;32;34190;-86
2022/05/11 05:34:11;;;;;;;10.25;7.82;;;;;;;20.29;59.55;100715.84;5524093;32;34167;-85
2022/05/11 05:37:16;;;;;;;10.48;7.35;;;;;;;21.96;52.89;100708.47;5532154;32;32400;-87
2022/05/11 05:40:18;;;;;;;9.27;6.62;;;;;;;22.16;51.87;100709.25;5547242;32;33919;-86
2022/05/11 05:43:22;;;;;;;8.68;6.68;;;;;;;22.13;51.96;100701.47;5537899;32;32219;-86
2022/05/11 05:46:25;;;;;;;10.52;7.12;;;;;;;22.12;51.71;100702.47;5534326;32;34196;-86
2022/05/11 05:49:28;;;;;;;9.45;7.43;;;;;;;21.86;52.05;100703.03;5534910;32;34527;-86
2022/05/11 05:52:32;;;;;;;7.90;6.75;;;;;;;21.24;51.25;100704.09;5536013;32;34282;-86
2022/05/11 05:55:35;;;;;;;12.00;7.60;;;;;;;21.00;53.92;100697.19;5536423;32;33670;-86
2022/05/11 05:58:38;;;;;;;7.82;6.95;;;;;;;21.16;53.48;100703.94;5547091;32;33466;-86
2022/05/11 06:01:41;;;;;;;10.60;6.78;;;;;;;20.71;55.20;100705.97;5528999;32;33135;-87
2022/05/11 06:04:48;;;;;;;13.05;7.43;;;;;;;21.56;51.46;100699.47;5527403;32;34327;-89
2022/05/11 06:07:50;;;;;;;9.93;7.05;;;;;;;21.75;49.87;100704.03;5545839;32;33601;-91
2022/05/11 06:10:54;;;;;;;12.32;7.10;;;;;;;22.33;50.18;100702.28;5547156;32;34364;-90
2022/05/11 06:13:57;;;;;;;11.02;7.60;;;;;;;22.88;48.50;100698.00;5529005;32;32311;-88
2022/05/11 06:17:00;;;;;;;10.70;7.97;;;;;;;22.93;46.00;100700.25;5531243;32;33724;-88
2022/05/11 06:20:03;;;;;;;10.05;7.15;;;;;;;23.75;44.52;100699.47;5544058;32;33786;-87
2022/05/11 06:23:06;;;;;;;8.68;7.12;;;;;;;25.00;42.46;100704.75;5544939;32;33195;-87
2022/05/11 06:26:10;;;;;;;12.02;7.12;;;;;;;26.20;39.48;100704.63;5529001;32;32565;-87
2022/05/11 06:29:13;;;;;;;9.73;6.97;;;;;;;26.63;38.16;100701.66;5540974;32;32538;-88
2022/05/11 06:32:19;;;;;;;12.32;8.32;;;;;;;25.37;39.23;100701.81;5550152;32;33999;-87
2022/05/11 06:35:22;;;;;;;11.10;8.00;;;;;;;24.17;41.39;100704.25;5528009;32;33331;-87
2022/05/11 06:38:24;;;;;;;10.43;8.20;;;;;;;23.69;42.51;100703.66;5529695;32;33687;-87
2022/05/11 06:41:28;;;;;;;10.70;8.35;;;;;;;22.78;44.80;100694.50;5515782;32;32602;-88
2022/05/11 06:44:31;;;;;;;9.52;8.07;;;;;;;22.19;47.31;100698.19;5519102;32;34549;-88
2022/05/11 06:47:34;;;;;;;11.75;8.13;;;;;;;22.64;46.45;100696.69;5520880;32;34301;-87
2022/05/11 06:50:36;;;;;;;9.73;7.30;;;;;;;22.36;47.35;100701.97;5528854;32;34285;-86
2022/05/11 07:00:23;;;;;;;10.73;8.45;;;;;;;23.69;43.67;100696.38;5533326;32;33285;-88
2022/05/11 07:03:26;;;;;;;11.77;8.23;;;;;;;23.47;43.91;100694.97;5528537;32;33984;-85
2022/05/11 07:06:28;;;;;;;12.93;8.38;;;;;;;23.34;44.97;100691.81;5533318;32;34734;-86
2022/05/11 07:09:33;;;;;;;15.43;8.63;;;;;;;24.12;43.38;100692.22;5546263;32;33622;-85
2022/05/11 07:12:38;;;;;;;11.25;8.40;;;;;;;24.59;42.97;100690.97;5528373;32;33796;-87
2022/05/11 07:15:41;;;;;;;9.68;7.32;;;;;;;25.16;40.74;100692.25;5538270;32;33178;-85
2022/05/11 07:18:44;;;;;;;17.20;7.37;;;;;;;25.93;38.02;100688.50;5546382;32;33019;-86
2022/05/11 07:21:47;;;;;;;10.40;7.00;;;;;;;25.90;37.54;100691.53;5525838;32;35108;-86
2022/05/11 07:24:50;;;;;;;17.05;7.75;;;;;;;25.84;39.48;100686.78;5515486;32;34063;-87
2022/05/11 07:27:54;;;;;;;10.52;6.75;;;;;;;26.38;38.14;100682.69;5531972;32;33717;-88
2022/05/11 07:30:56;;;;;;;17.80;7.43;;;;;;;26.26;38.75;100681.34;5546917;32;33240;-88
2022/05/11 07:34:00;;;;;;;12.55;6.43;;;;;;;26.54;37.52;100679.06;5531706;32;33585;-85
2022/05/11 07:37:03;;;;;;;10.30;6.85;;;;;;;26.85;37.57;100677.47;5530580;32;32239;-85
2022/05/11 07:40:08;;;;;;;10.70;6.28;;;;;;;26.62;37.32;100670.91;5532814;32;33973;-85
2022/05/11 07:43:12;;;;;;;12.27;7.18;;;;;;;27.17;36.64;100673.72;5541197;32;34010;-84
2022/05/11 07:46:15;;;;;;;12.13;6.65;;;;;;;27.75;35.67;100672.50;5533693;32;33869;-86
2022/05/11 07:49:20;;;;;;;10.40;5.82;;;;;;;28.01;34.82;100673.16;5532918;32;33902;-87
2022/05/11 07:52:22;;;;;;;14.20;6.22;;;;;;;28.49;31.73;100676.44;5533379;32;34040;-90
2022/05/11 07:55:26;;;;;;;11.30;5.75;;;;;;;28.40;31.33;100672.09;5532356;32;33819;-88
2022/05/11 08:01:50;;;;;;;8.70;5.65;;;;;;;28.44;30.41;100680.75;5534679;32;32640;-85
2022/05/11 08:04:57;;;;;;;6.80;5.00;;;;;;;28.43;30.91;100674.47;5532150;32;34318;-85
2022/05/11 08:08:03;;;;;;;6.30;4.70;;;;;;;28.96;31.09;100673.50;5534165;32;33510;-85
2022/05/11 08:11:06;;;;;;;7.80;4.43;;;;;;;28.67;29.75;100669.78;5528539;32;33436;-85
2022/05/11 08:14:10;;;;;;;8.20;4.78;;;;;;;29.39;30.09;100660.97;5531887;32;32549;-85
2022/05/11 08:17:14;;;;;;;7.07;3.92;;;;;;;29.81;30.80;100661.19;5522624;32;33373;-84
2022/05/11 08:20:28;;;;;;;8.35;4.18;;;;;;;30.11;26.86;100661.88;5520490;32;33953;-85
2022/05/11 08:23:33;;;;;;;7.20;4.37;;;;;;;30.20;27.50;100657.09;5551608;32;33999;-85
2022/05/11 08:26:37;;;;;;;7.18;3.80;;;;;;;30.90;26.85;100658.09;5531375;32;34427;-85
2022/05/11 08:36:47;;;;;;;5.15;3.90;;;;;;;31.56;25.90;100658.50;5540831;32;34120;-88
2022/05/11 08:39:50;;;;;;;4.60;3.62;;;;;;;31.05;25.32;100655.22;5527235;32;34483;-89
2022/05/11 08:43:16;;;;;;;6.93;3.60;;;;;;;30.67;25.16;100651.06;5524718;32;34208;-88
2022/05/11 08:46:53;;;;;;;8.65;3.78;;;;;;;31.39;25.57;100656.19;5526018;32;32042;-92
2022/05/11 08:50:17;;;;;;;8.48;3.53;;;;;;;31.25;23.81;100648.94;5524373;32;33411;-87
2022/05/11 08:53:41;;;;;;;7.85;3.58;;;;;;;31.30;24.49;100647.31;5521136;32;36948;-87
2022/05/11 08:56:49;;;;;;;7.47;3.72;;;;;;;31.63;25.47;100648.41;5508605;32;34193;-88
2022/05/11 09:00:13;;;;;;;8.68;3.70;;;;;;;31.07;24.10;100644.88;5508707;32;33551;-88
2022/05/11 09:03:33;;;;;;;7.15;3.50;;;;;;;30.75;24.65;100641.81;5519819;32;32826;-88
2022/05/11 09:06:37;;;;;;;5.00;3.30;;;;;;;32.22;24.00;100647.78;5523092;32;33864;-88
2022/05/11 09:09:40;;;;;;;7.30;3.20;;;;;;;32.27;23.16;100647.94;5512360;32;34254;-86
2022/05/11 09:12:42;;;;;;;6.80;3.85;;;;;;;32.09;22.00;100651.38;5509950;32;32928;-86
2022/05/11 09:15:55;;;;;;;6.37;3.28;;;;;;;31.98;21.62;100650.94;5511680;32;34488;-86
2022/05/11 09:19:09;;;;;;;6.43;3.22;;;;;;;33.06;21.49;100647.94;5528172;32;34033;-87
2022/05/11 09:22:23;;;;;;;5.10;3.60;;;;;;;33.25;19.85;100645.28;5529936;32;34874;-91
2022/05/11 09:25:29;;;;;;;8.25;3.20;;;;;;;31.86;18.90;100644.41;5528377;32;32549;-87
2022/05/11 09:28:39;;;;;;;6.97;3.55;;;;;;;31.04;20.61;100637.94;5525665;32;34196;-88
2022/05/11 09:31:47;;;;;;;5.85;3.40;;;;;;;30.39;21.43;100638.25;5527252;32;34387;-87
2022/05/11 09:34:50;;;;;;;14.45;4.62;;;;;;;29.52;23.51;100643.91;5528126;32;37394;-88
2022/05/11 09:38:26;;;;;;;6.85;3.75;;;;;;;29.13;25.53;100638.66;5548186;32;32436;-88
2022/05/11 09:41:30;;;;;;;4.37;3.17;;;;;;;28.96;25.12;100646.22;5548777;32;34991;-88
2022/05/11 09:44:48;;;;;;;6.25;3.90;;;;;;;31.12;21.31;100639.63;5548747;32;35081;-88
2022/05/11 09:48:02;;;;;;;5.50;3.10;;;;;;;32.44;19.67;100636.53;5531564;32;34282;-87
2022/05/11 09:51:27;;;;;;;3.83;3.05;;;;;;;34.06;18.19;100633.69;5528907;32;32952;-87
2022/05/11 09:54:43;;;;;;;5.65;3.42;;;;;;;34.64;14.74;100630.75;5531766;32;34642;-88
2022/05/11 09:58:10;;;;;;;4.60;3.12;;;;;;;34.12;17.59;100630.00;5532987;32;32402;-92
2022/05/11 10:01:26;;;;;;;2.78;2.53;;;;;;;33.28;16.52;100633.81;5533390;32;34287;-87
2022/05/11 10:04:51;;;;;;;6.15;3.45;;;;;;;32.96;17.85;100630.22;5534750;32;34267;-89
2022/05/11 10:08:23;;;;;;;6.25;3.40;;;;;;;33.26;18.40;100618.62;5532237;32;33712;-86
2022/05/11 10:11:39;;;;;;;8.68;3.60;;;;;;;32.43;20.03;100632.12;5547579;32;34472;-91
2022/05/11 10:22:11;;;;;;;4.07;3.60;;;;;;;28.54;26.36;100625.91;5525431;32;34795;-89
2022/05/11 10:25:39;;;;;;;4.75;3.30;;;;;;;28.38;25.87;100625.09;5516334;32;33861;-85
2022/05/11 10:28:50;;;;;;;3.78;3.40;;;;;;;29.73;24.48;100619.25;5523718;32;32469;-85
2022/05/11 10:32:04;;;;;;;6.53;4.43;;;;;;;28.66;26.25;100621.69;5525909;32;33021;-85
2022/05/11 10:35:16;;;;;;;4.90;3.87;;;;;;;27.66;28.46;100625.41;5525019;32;34148;-85
2022/05/11 10:38:56;;;;;;;4.65;3.85;;;;;;;30.04;25.89;100628.13;5535187;32;34410;-85
2022/05/11 10:42:13;;;;;;;;;;;;;;;31.64;23.08;100619.06;5535888;32;34334;-84
2022/05/11 10:45:27;;;;;;;7.68;4.30;;;;;;;30.83;22.83;100619.75;5538427;32;32754;-84
2022/05/11 10:48:38;;;;;;;4.40;4.00;;;;;;;31.54;22.85;100620.34;5539879;32;35553;-84
2022/05/11 10:51:52;;;;;;;7.93;3.78;;;;;;;30.30;23.26;100612.97;5523665;32;32603;-85
2022/05/11 10:55:25;;;;;;;5.32;3.53;;;;;;;30.16;24.15;100609.28;5522804;32;34787;-89
2022/05/11 10:58:28;;;;;;;6.82;3.90;;;;;;;29.68;25.65;100605.38;5520411;32;34036;-88
2022/05/11 11:02:00;;;;;;;5.78;3.40;;;;;;;30.32;24.53;100605.38;5513579;32;33340;-88
2022/05/11 11:05:26;;;;;;;6.00;3.95;;;;;;;29.82;24.44;100602.72;5531468;32;33319;-88
2022/05/11 11:08:37;;;;;;;7.37;4.20;;;;;;;29.44;25.60;100599.25;5533341;32;33807;-89
2022/05/11 11:12:30;;;;;;;4.15;3.75;;;;;;;29.70;26.32;100606.00;5545215;32;34588;-88
2022/05/11 11:15:38;;;;;;;4.75;3.70;;;;;;;29.95;24.90;100604.69;5518110;32;34959;-90
2022/05/11 11:19:10;;;;;;;7.12;4.57;;;;;;;30.49;24.04;100599.56;5498356;32;20100;-89
2022/05/11 11:26:20;;;;;;;4.78;3.78;;;;;;;29.32;25.69;100596.19;5181640;30;20449;-89
2022/05/11 11:29:31;;;;;;;4.93;3.80;;;;;;;29.20;25.75;100584.09;5457219;32;33257;-88
2022/05/11 11:33:12;;;;;;;7.40;3.50;;;;;;;29.44;26.34;100582.00;5457858;32;33120;-88
2022/05/11 11:36:17;;;;;;;4.97;3.90;;;;;;;29.98;25.33;100582.44;5468852;32;32847;-90
2022/05/11 11:39:48;;;;;;;5.15;3.67;;;;;;;29.49;25.35;100571.34;5466076;32;34406;-88
2022/05/11 11:42:51;;;;;;;5.95;4.12;;;;;;;29.84;25.29;100576.88;5475276;32;34422;-89
2022/05/11 11:45:53;;;;;;;5.12;3.78;;;;;;;28.91;25.36;100573.06;5453072;32;33749;-89
2022/05/11 11:49:19;;;;;;;5.97;3.62;;;;;;;29.10;25.49;100569.91;5463725;32;32302;-89
2022/05/11 11:52:39;;;;;;;4.10;3.70;;;;;;;29.94;26.17;100570.19;5459296;32;34531;-86
2022/05/11 11:55:42;;;;;;;10.57;4.10;;;;;;;29.99;24.50;100554.03;5455103;32;32986;-87
2022/05/11 11:58:44;;;;;;;8.75;3.58;;;;;;;29.10;25.64;100556.28;5452391;32;33115;-87
2022/05/11 12:01:48;;;;;;;5.25;3.60;;;;;;;29.53;25.60;100559.00;5454750;32;32592;-88
2022/05/11 12:04:57;;;;;;;5.10;3.72;;;;;;;28.83;25.38;100551.34;5468603;32;34622;-89
2022/05/11 12:15:24;;;;;;;5.07;3.60;;;;;;;29.39;24.62;100536.16;5507033;32;34913;-89
2022/05/11 12:18:30;;;;;;;6.55;3.85;;;;;;;29.55;24.54;100545.13;5507872;32;34233;-92
2022/05/11 12:21:34;;;;;;;7.05;3.50;;;;;;;29.55;24.39;100537.78;5494397;32;32296;-92
2022/05/11 12:24:42;;;;;;;4.65;3.50;;;;;;;29.05;25.59;100535.84;5489753;32;33119;-88
2022/05/11 12:27:46;;;;;;;8.02;3.97;;;;;;;28.23;25.36;100535.94;5492502;32;34074;-88
2022/05/11 12:30:49;;;;;;;6.72;3.78;;;;;;;28.02;24.90;100538.53;5525331;32;32672;-87
2022/05/11 12:33:55;;;;;;;7.50;3.47;;;;;;;28.50;25.40;100529.94;5506490;32;34412;-87
2022/05/11 12:36:58;;;;;;;6.07;3.80;;;;;;;28.61;25.07;100521.28;5509138;32;32638;-87
2022/05/11 12:40:12;;;;;;;5.65;3.33;;;;;;;29.15;25.45;100519.13;5506949;32;32394;-87
2022/05/11 12:43:21;;;;;;;5.18;3.50;;;;;;;29.02;25.50;100516.28;5507887;32;33653;-86
2022/05/11 12:46:25;;;;;;;5.03;3.37;;;;;;;29.36;24.90;100511.13;5517886;32;34097;-87
2022/05/11 12:49:29;;;;;;;6.15;3.53;;;;;;;28.81;25.49;100507.00;5502217;32;33779;-87
2022/05/11 12:52:32;;;;;;;5.60;3.70;;;;;;;28.70;25.64;100502.06;5510430;32;35055;-86
2022/05/11 12:55:36;;;;;;;5.80;3.50;;;;;;;28.89;25.19;100501.47;5509955;32;33427;-87
2022/05/11 12:59:00;;;;;;;9.23;3.53;;;;;;;28.77;25.17;100495.63;5509157;32;33963;-86
2022/05/11 13:02:14;;;;;;;6.00;3.70;;;;;;;28.38;25.25;100489.56;5514513;32;34782;-89
2022/05/11 13:05:19;;;;;;;5.47;3.50;;;;;;;28.15;26.09;100492.38;5515309;32;34582;-91
2022/05/11 13:11:48;;;;;;;10.10;3.70;;;;;;;28.48;25.69;100496.56;5490269;32;33625;-90
2022/05/11 13:14:55;;;;;;;4.03;3.28;;;;;;;28.34;26.75;100480.06;5481214;32;32935;-91
2022/05/11 13:17:58;;;;;;;4.78;3.70;;;;;;;28.35;27.84;100484.47;5483299;32;33894;-88
2022/05/11 13:21:05;;;;;;;3.78;3.30;;;;;;;28.29;25.63;100481.66;5511009;32;33892;-90
2022/05/11 13:24:12;;;;;;;7.75;3.53;;;;;;;28.01;26.06;100491.37;5513095;32;33835;-89
2022/05/11 13:27:32;;;;;;;6.68;3.80;;;;;;;28.36;25.31;100475.25;5514285;32;34003;-90
2022/05/11 13:30:37;;;;;;;8.48;4.35;;;;;;;28.03;26.08;100470.22;5512327;32;34246;-91
2022/05/11 13:33:43;;;;;;;6.10;3.37;;;;;;;27.92;26.57;100468.81;5482180;32;34580;-90
2022/05/11 13:36:51;;;;;;;5.07;3.50;;;;;;;27.83;25.89;100465.34;5479220;32;32480;-89
2022/05/11 13:39:54;;;;;;;5.70;3.58;;;;;;;28.05;26.83;100467.31;5479699;32;33208;-88
2022/05/11 13:42:57;;;;;;;8.02;3.62;;;;;;;27.98;26.13;100457.16;5493896;32;34005;-89
2022/05/11 13:46:28;;;;;;;6.20;3.78;;;;;;;27.74;26.74;100454.72;5489164;32;32553;-89
2022/05/11 13:49:31;;;;;;;4.37;3.50;;;;;;;27.01;27.56;100458.81;5483410;32;32673;-89
2022/05/11 13:52:38;;;;;;;4.85;3.30;;;;;;;27.43;27.78;100451.94;5488902;32;32855;-89
2022/05/11 13:55:44;;;;;;;5.70;3.30;;;;;;;27.88;27.84;100442.09;5493614;32;34808;-88
2022/05/11 13:59:05;;;;;;;10.40;3.92;;;;;;;27.49;27.67;100449.53;5494817;32;34500;-89
2022/05/11 14:02:09;;;;;;;4.57;3.58;;;;;;;27.61;28.02;100439.88;5478127;32;33779;-88
2022/05/11 14:05:12;;;;;;;5.85;3.78;;;;;;;27.22;27.54;100435.47;5491822;32;33708;-89
2022/05/11 14:08:15;;;;;;;6.20;3.62;;;;;;;27.02;28.14;100438.72;5493812;32;34620;-88
2022/05/11 14:11:20;;;;;;;5.18;3.72;;;;;;;27.22;28.61;100443.63;5495535;32;35490;-88
2022/05/11 14:14:22;;;;;;;5.57;3.67;;;;;;;27.00;27.33;100436.16;5483886;32;33578;-88
2022/05/11 14:17:28;;;;;;;6.07;3.75;;;;;;;27.21;28.07;100431.06;5492225;32;33871;-88
2022/05/11 14:20:31;;;;;;;10.90;4.10;;;;;;;26.89;29.30;100426.56;5482889;32;33940;-88
2022/05/11 14:23:34;;;;;;;4.55;3.80;;;;;;;26.98;28.86;100424.63;5458530;32;32529;-88
2022/05/11 14:26:37;;;;;;;9.13;3.70;;;;;;;26.77;28.79;100428.88;5459723;32;32689;-88
2022/05/11 14:29:47;;;;;;;7.47;4.15;;;;;;;26.86;29.37;100421.47;5458710;32;32456;-88
2022/05/11 14:32:50;;;;;;;5.47;3.90;;;;;;;26.81;29.53;100426.63;5472518;32;33979;-87
2022/05/11 14:35:54;;;;;;;4.05;3.30;;;;;;;26.51;28.97;100423.78;5459634;32;32511;-91
2022/05/11 14:38:57;;;;;;;5.28;4.05;;;;;;;26.33;30.33;100416.75;5472644;32;34054;-92
2022/05/11 14:42:00;;;;;;;6.03;3.58;;;;;;;25.94;30.77;100415.75;5471782;32;32495;-92
2022/05/11 14:45:04;;;;;;;5.75;3.60;;;;;;;25.73;30.98;100410.06;5460822;32;33903;-91
2022/05/11 14:48:23;;;;;;;5.00;3.97;;;;;;;25.88;30.98;100412.88;5490573;32;33311;-87
2022/05/11 14:51:26;;;;;;;4.68;3.78;;;;;;;26.05;31.83;100410.94;5482705;32;32607;-88
2022/05/11 14:54:29;;;;;;;4.40;3.80;;;;;;;26.34;29.51;100406.72;5485654;32;33611;-87
2022/05/11 15:04:24;;;;;;;5.40;3.95;;;;;;;26.79;29.13;100398.72;5490889;32;33751;-87
2022/05/11 15:07:27;;;;;;;7.20;3.75;;;;;;;26.86;28.59;100398.84;5477029;32;33296;-87
2022/05/11 15:10:29;;;;;;;4.68;3.50;;;;;;;26.88;28.83;100397.66;5479632;32;33768;-87
2022/05/11 15:13:32;;;;;;;4.20;3.78;;;;;;;26.80;29.49;100394.16;5490556;32;34372;-87
2022/05/11 15:16:37;;;;;;;5.60;3.62;;;;;;;26.50;29.39;100403.88;5494372;32;33159;-88
2022/05/11 15:19:40;;;;;;;3.83;3.35;;;;;;;26.27;30.78;100400.31;5495121;32;33548;-88
2022/05/11 15:22:43;;;;;;;5.20;3.40;;;;;;;26.22;30.72;100395.38;5509545;32;34479;-87
2022/05/11 15:25:47;;;;;;;4.90;3.50;;;;;;;26.29;30.22;100395.56;5511145;32;34790;-89
2022/05/11 15:28:50;;;;;;;5.00;4.10;;;;;;;26.19;30.62;100393.88;5492053;32;33705;-89
2022/05/11 15:32:05;;;;;;;7.72;4.47;;;;;;;26.31;30.84;100393.50;5492145;32;34824;-88
2022/05/11 15:35:10;;;;;;;5.90;3.83;;;;;;;26.31;30.21;100396.22;5492297;32;34012;-88
2022/05/11 15:38:14;;;;;;;5.68;3.72;;;;;;;26.45;31.07;100386.44;5492389;32;33798;-89
2022/05/11 15:41:17;;;;;;;7.35;3.70;;;;;;;26.63;29.10;100394.28;5478658;32;33647;-89
